createdAt,value
2018-10-05T00:00:41.361Z,60.66
2018-10-05T00:03:09.461Z,60.65
2018-10-05T00:05:37.541Z,60.59
2018-10-05T00:08:05.867Z,60.53
2018-10-05T00:10:33.946Z,60.46
2018-10-05T00:13:02.007Z,60.44
2018-10-05T00:15:30.129Z,60.41
2018-10-05T00:17:58.194Z,60.43
2018-10-05T00:20:26.294Z,60.39
2018-10-05T00:22:54.514Z,60.46
2018-10-05T00:25:22.585Z,60.34
2018-10-05T00:27:50.647Z,60.45
2018-10-05T00:30:18.963Z,60.66
2018-10-05T00:32:47.038Z,60.64
2018-10-05T00:35:15.106Z,60.67
2018-10-05T00:37:43.167Z,60.74
2018-10-05T00:40:11.240Z,60.70
2018-10-05T00:42:39.359Z,60.70
2018-10-05T00:45:07.386Z,60.78
2018-10-05T00:47:35.453Z,60.98
2018-10-05T00:50:03.679Z,61.06
2018-10-05T00:52:31.741Z,61.10
2018-10-05T00:54:59.831Z,61.29
2018-10-05T00:57:27.907Z,61.37
2018-10-05T00:59:55.967Z,61.36
2018-10-05T01:02:24.062Z,61.40
2018-10-05T01:04:52.122Z,61.36
2018-10-05T01:07:20.216Z,61.34
2018-10-05T01:09:48.297Z,61.36
2018-10-05T01:12:17.120Z,61.46
2018-10-05T01:14:45.230Z,61.63
2018-10-05T01:17:13.314Z,61.69
2018-10-05T01:19:41.386Z,61.68
2018-10-05T01:22:09.467Z,61.67
2018-10-05T01:24:37.569Z,61.56
2018-10-05T01:27:05.654Z,61.48
2018-10-05T01:29:33.731Z,61.43
2018-10-05T01:32:01.814Z,61.34
2018-10-05T01:34:29.911Z,61.33
2018-10-05T01:36:58.006Z,61.37
2018-10-05T01:39:26.103Z,61.30
2018-10-05T01:41:54.206Z,61.38
2018-10-05T01:44:22.290Z,61.35
2018-10-05T01:46:50.368Z,61.40
2018-10-05T01:49:18.450Z,61.46
2018-10-05T01:51:46.512Z,61.44
2018-10-05T01:54:14.591Z,61.48
2018-10-05T01:56:42.661Z,61.61
2018-10-05T01:59:10.743Z,61.70
2018-10-05T02:01:38.814Z,61.68
2018-10-05T02:04:06.934Z,61.70
2018-10-05T02:06:35.086Z,61.78
2018-10-05T02:09:03.586Z,61.84
2018-10-05T02:11:31.644Z,61.82
2018-10-05T02:13:59.729Z,61.82
2018-10-05T02:16:27.791Z,61.82
2018-10-05T02:18:55.860Z,61.85
2018-10-05T02:21:23.919Z,61.97
2018-10-05T02:23:51.985Z,62.12
2018-10-05T02:26:20.040Z,62.12
2018-10-05T02:28:48.114Z,62.10
2018-10-05T02:31:16.174Z,62.12
2018-10-05T02:33:44.315Z,62.27
2018-10-05T02:36:12.376Z,62.29
2018-10-05T02:38:40.433Z,62.44
2018-10-05T02:41:08.504Z,62.37
2018-10-05T02:43:36.558Z,62.31
2018-10-05T02:46:04.626Z,62.41
2018-10-05T02:48:32.687Z,62.36
2018-10-05T02:51:00.761Z,62.47
2018-10-05T02:53:28.817Z,62.69
2018-10-05T02:55:56.949Z,62.75
2018-10-05T02:58:25.002Z,62.89
2018-10-05T03:01:04.582Z,62.88
2018-10-05T03:03:32.636Z,62.84
2018-10-05T03:06:00.728Z,62.93
2018-10-05T03:08:28.891Z,63.13
2018-10-05T03:10:57.070Z,63.40
2018-10-05T03:13:25.142Z,64.32
2018-10-05T03:15:53.218Z,65.46
2018-10-05T03:18:21.285Z,65.95
2018-10-05T03:20:49.361Z,66.01
2018-10-05T03:23:17.424Z,65.98
2018-10-05T03:25:45.653Z,66.19
2018-10-05T03:28:13.564Z,66.35
2018-10-05T03:30:41.637Z,66.50
2018-10-05T03:33:09.708Z,66.29
2018-10-05T03:35:37.778Z,66.31
2018-10-05T03:38:06.128Z,66.43
2018-10-05T03:40:34.248Z,66.58
2018-10-05T03:43:02.311Z,66.90
2018-10-05T03:45:30.392Z,66.88
2018-10-05T03:47:58.455Z,66.75
2018-10-05T03:50:26.525Z,66.98
2018-10-05T03:52:54.589Z,67.15
2018-10-05T03:55:22.653Z,67.25
2018-10-05T03:57:50.752Z,67.50
2018-10-05T04:00:18.779Z,67.52
2018-10-05T04:02:46.901Z,67.75
2018-10-05T04:05:14.983Z,68.05
2018-10-05T04:07:43.154Z,68.14
2018-10-05T04:10:11.226Z,68.23
2018-10-05T04:12:39.305Z,68.04
2018-10-05T04:15:07.627Z,67.92
2018-10-05T04:17:35.713Z,68.10
2018-10-05T04:20:03.801Z,68.13
2018-10-05T04:22:31.909Z,68.10
2018-10-05T04:25:00.019Z,68.21
2018-10-05T04:27:28.106Z,68.14
2018-10-05T04:29:56.770Z,68.18
2018-10-05T04:32:25.060Z,68.20
2018-10-05T04:34:53.133Z,68.24
2018-10-05T04:37:21.235Z,68.19
2018-10-05T04:39:49.319Z,68.22
2018-10-05T04:42:17.395Z,68.11
2018-10-05T04:44:45.477Z,68.10
2018-10-05T04:47:13.753Z,68.08
2018-10-05T04:49:41.848Z,68.24
2018-10-05T04:52:10.058Z,68.52
2018-10-05T04:54:38.137Z,68.61
2018-10-05T04:57:06.258Z,68.89
2018-10-05T04:59:34.367Z,68.86
2018-10-05T05:02:02.465Z,68.89
2018-10-05T05:04:30.593Z,68.73
2018-10-05T05:06:58.682Z,68.85
2018-10-05T05:09:26.772Z,68.67
2018-10-05T05:11:54.870Z,68.72
2018-10-05T05:14:22.950Z,68.70
2018-10-05T05:16:51.022Z,68.64
2018-10-05T05:19:19.209Z,68.71
2018-10-05T05:21:47.293Z,68.91
2018-10-05T05:24:15.379Z,69.03
2018-10-05T05:26:43.494Z,69.21
2018-10-05T05:29:11.582Z,69.32
2018-10-05T05:31:39.654Z,69.29
2018-10-05T05:34:07.860Z,69.62
2018-10-05T05:36:35.930Z,69.79
2018-10-05T05:39:04.752Z,69.72
2018-10-05T05:41:32.835Z,69.66
2018-10-05T05:44:00.906Z,69.55
2018-10-05T05:46:29.029Z,69.21
2018-10-05T05:48:57.098Z,69.00
2018-10-05T05:51:25.281Z,68.81
2018-10-05T05:53:53.375Z,68.84
2018-10-05T05:56:21.454Z,68.71
2018-10-05T05:58:49.531Z,68.78
2018-10-05T06:01:17.740Z,68.79
2018-10-05T06:03:45.817Z,68.84
2018-10-05T06:06:13.911Z,68.95
2018-10-05T06:08:41.987Z,68.96
2018-10-05T06:11:10.080Z,68.95
2018-10-05T06:13:38.153Z,68.89
2018-10-05T06:16:06.329Z,68.73
2018-10-05T06:18:34.320Z,68.65
2018-10-05T06:21:02.413Z,68.45
2018-10-05T06:23:30.520Z,68.14
2018-10-05T06:25:58.607Z,68.04
2018-10-05T06:28:26.755Z,67.91
2018-10-05T06:30:54.925Z,67.91
2018-10-05T06:33:23.200Z,67.93
2018-10-05T06:35:51.218Z,67.78
2018-10-05T06:38:19.324Z,67.58
2018-10-05T06:40:47.410Z,67.60
2018-10-05T06:43:15.527Z,67.62
2018-10-05T06:45:43.612Z,67.49
2018-10-05T06:48:11.719Z,67.04
2018-10-05T06:50:39.824Z,66.71
2018-10-05T06:53:07.938Z,66.55
2018-10-05T06:55:36.021Z,66.66
2018-10-05T06:58:04.120Z,66.49
2018-10-05T07:00:32.208Z,66.42
2018-10-05T07:03:00.311Z,66.21
2018-10-05T07:05:28.411Z,65.84
2018-10-05T07:07:56.526Z,65.60
2018-10-05T07:10:24.606Z,65.33
2018-10-05T07:12:52.711Z,65.05
2018-10-05T07:15:20.796Z,64.88
2018-10-05T07:17:48.916Z,64.79
2018-10-05T07:20:17.016Z,64.44
2018-10-05T07:22:45.234Z,64.17
2018-10-05T07:25:13.334Z,63.97
2018-10-05T07:27:41.410Z,63.76
2018-10-05T07:30:09.643Z,63.63
2018-10-05T07:32:37.726Z,62.99
2018-10-05T07:35:05.823Z,63.34
2018-10-05T07:37:33.913Z,63.45
2018-10-05T07:40:02.061Z,63.51
2018-10-05T07:42:30.196Z,63.61
2018-10-05T07:44:58.383Z,63.95
2018-10-05T07:47:26.468Z,64.34
2018-10-05T07:49:54.567Z,64.47
2018-10-05T07:52:22.661Z,64.65
2018-10-05T07:54:50.760Z,64.99
2018-10-05T07:57:18.856Z,65.09
2018-10-05T07:59:46.943Z,65.15
2018-10-05T08:02:15.027Z,65.42
2018-10-05T08:04:43.129Z,65.63
2018-10-05T08:07:11.289Z,65.69
2018-10-05T08:09:39.402Z,65.78
2018-10-05T08:12:07.405Z,65.66
2018-10-05T08:14:35.483Z,65.59
2018-10-05T08:17:03.550Z,65.49
2018-10-05T08:19:31.631Z,65.26
2018-10-05T08:21:59.705Z,64.88
2018-10-05T08:24:27.784Z,64.70
2018-10-05T08:26:56.307Z,65.04
2018-10-05T08:29:24.403Z,65.13
2018-10-05T08:31:52.415Z,64.84
2018-10-05T08:34:20.490Z,64.79
2018-10-05T08:36:48.567Z,64.46
2018-10-05T08:39:16.670Z,64.07
2018-10-05T08:41:44.762Z,63.39
2018-10-05T08:44:12.835Z,63.14
2018-10-05T08:46:40.917Z,62.94
2018-10-05T08:49:08.989Z,62.75
2018-10-05T08:51:37.128Z,61.91
2018-10-05T08:54:05.160Z,61.76
2018-10-05T08:56:33.237Z,61.88
2018-10-05T08:59:01.310Z,60.90
2018-10-05T09:01:29.380Z,60.84
2018-10-05T09:03:57.452Z,60.71
2018-10-05T09:06:25.533Z,60.99
2018-10-05T09:08:53.678Z,60.54
2018-10-05T09:11:21.791Z,59.31
2018-10-05T09:13:49.836Z,59.73
2018-10-05T09:16:17.910Z,60.05
2018-10-05T09:18:45.983Z,58.98
2018-10-05T09:21:14.058Z,58.90
2018-10-05T09:23:42.123Z,58.18
2018-10-05T09:26:10.202Z,58.34
2018-10-05T09:28:38.476Z,57.91
2018-10-05T09:31:06.570Z,58.30
2018-10-05T09:33:34.639Z,57.21
2018-10-05T09:36:02.703Z,57.07
2018-10-05T09:38:30.777Z,56.57
2018-10-05T09:40:58.845Z,56.57
2018-10-05T09:43:27.124Z,56.44
2018-10-05T09:45:55.187Z,56.67
2018-10-05T09:48:23.270Z,56.26
2018-10-05T09:50:51.341Z,56.55
2018-10-05T09:53:19.422Z,56.10
2018-10-05T09:55:47.483Z,54.86
2018-10-05T09:58:15.583Z,55.20
2018-10-05T10:00:48.979Z,54.40
2018-10-05T10:03:22.405Z,54.43
2018-10-05T10:05:50.461Z,54.61
2018-10-05T10:08:18.566Z,53.82
2018-10-05T10:10:46.602Z,54.17
2018-10-05T10:13:14.687Z,53.71
2018-10-05T10:15:42.748Z,53.43
2018-10-05T10:18:10.828Z,53.18
2018-10-05T10:20:38.890Z,53.02
2018-10-05T10:23:06.976Z,53.32
2018-10-05T10:25:35.055Z,53.32
2018-10-05T10:28:03.145Z,53.36
2018-10-05T10:30:31.191Z,53.31
2018-10-05T10:32:59.258Z,52.81
2018-10-05T10:35:27.346Z,52.33
2018-10-05T10:37:55.504Z,51.66
2018-10-05T10:40:23.583Z,51.73
2018-10-05T10:42:51.694Z,51.59
2018-10-05T10:45:19.765Z,51.67
2018-10-05T10:47:47.854Z,51.46
2018-10-05T10:50:15.958Z,51.77
2018-10-05T10:52:44.032Z,51.89
2018-10-05T10:55:12.170Z,51.73
2018-10-05T10:57:40.186Z,50.73
2018-10-05T11:00:08.262Z,51.20
2018-10-05T11:02:36.328Z,51.26
2018-10-05T11:05:04.567Z,50.58
2018-10-05T11:07:32.510Z,50.76
2018-10-05T11:10:00.591Z,50.82
2018-10-05T11:12:28.655Z,50.21
2018-10-05T11:14:56.726Z,50.47
2018-10-05T11:17:24.796Z,50.50
2018-10-05T11:19:52.875Z,49.61
2018-10-05T11:22:20.941Z,49.63
2018-10-05T11:24:49.018Z,49.14
2018-10-05T11:27:17.085Z,49.19
2018-10-05T11:29:45.195Z,49.15
2018-10-05T11:32:13.238Z,49.25
2018-10-05T11:34:41.341Z,48.34
2018-10-05T11:37:09.382Z,48.62
2018-10-05T11:39:37.451Z,48.24
2018-10-05T11:42:05.588Z,48.52
2018-10-05T11:44:33.653Z,48.55
2018-10-05T11:47:01.740Z,48.65
2018-10-05T11:49:29.818Z,48.36
2018-10-05T11:51:57.911Z,47.75
2018-10-05T11:54:26.029Z,47.81
2018-10-05T11:56:54.065Z,47.56
2018-10-05T11:59:22.133Z,47.38
2018-10-05T12:01:50.313Z,47.57
2018-10-05T12:04:18.383Z,46.93
2018-10-05T12:06:46.466Z,46.41
2018-10-05T12:09:14.535Z,46.27
2018-10-05T12:11:42.609Z,46.33
2018-10-05T12:14:10.679Z,45.58
2018-10-05T12:16:38.763Z,45.98
2018-10-05T12:19:06.831Z,45.82
2018-10-05T12:21:34.910Z,45.94
2018-10-05T12:24:02.999Z,45.69
2018-10-05T12:26:31.140Z,44.98
2018-10-05T12:28:59.310Z,44.37
2018-10-05T12:31:27.399Z,45.02
2018-10-05T12:33:55.484Z,44.28
2018-10-05T12:36:23.551Z,44.14
2018-10-05T12:38:51.634Z,43.76
2018-10-05T12:41:19.696Z,44.50
2018-10-05T12:43:47.771Z,44.67
2018-10-05T12:46:15.846Z,43.65
2018-10-05T12:48:43.922Z,44.27
2018-10-05T12:51:11.992Z,43.50
2018-10-05T12:53:40.068Z,43.64
2018-10-05T12:56:08.135Z,44.05
2018-10-05T12:58:36.213Z,43.77
2018-10-05T13:01:04.284Z,43.19
2018-10-05T13:03:32.367Z,43.23
2018-10-05T13:06:00.443Z,43.57
2018-10-05T13:08:28.516Z,43.40
2018-10-05T13:10:56.583Z,43.21
2018-10-05T13:13:24.664Z,43.25
2018-10-05T13:15:52.736Z,42.81
2018-10-05T13:18:20.820Z,42.43
2018-10-05T13:20:48.888Z,42.77
2018-10-05T13:23:16.969Z,43.13
2018-10-05T13:25:45.037Z,42.67
2018-10-05T13:28:13.126Z,42.57
2018-10-05T13:30:41.187Z,42.84
2018-10-05T13:33:09.371Z,42.80
2018-10-05T13:35:37.434Z,42.66
2018-10-05T13:38:05.674Z,42.88
2018-10-05T13:40:33.749Z,42.65
2018-10-05T13:43:01.815Z,42.33
2018-10-05T13:45:29.900Z,42.62
2018-10-05T13:47:57.968Z,42.86
2018-10-05T13:50:26.042Z,43.09
2018-10-05T13:52:54.141Z,43.12
2018-10-05T13:55:22.229Z,42.77
2018-10-05T13:57:50.297Z,42.63
2018-10-05T14:00:18.375Z,42.62
2018-10-05T14:02:46.452Z,42.37
2018-10-05T14:05:14.781Z,41.61
2018-10-05T14:07:42.817Z,41.44
2018-10-05T14:10:10.899Z,41.58
2018-10-05T14:12:39.200Z,41.56
2018-10-05T14:15:07.425Z,41.79
2018-10-05T14:17:35.445Z,41.61
2018-10-05T14:20:03.539Z,41.12
2018-10-05T14:22:31.619Z,41.13
2018-10-05T14:24:59.694Z,40.51
2018-10-05T14:27:27.765Z,40.60
2018-10-05T14:29:55.839Z,40.72
2018-10-05T14:32:23.900Z,40.35
2018-10-05T14:34:51.988Z,40.30
2018-10-05T14:37:20.060Z,40.61
2018-10-05T14:39:48.174Z,40.59
2018-10-05T14:42:16.260Z,40.39
2018-10-05T14:44:44.383Z,40.89
2018-10-05T14:47:12.469Z,41.22
2018-10-05T14:49:40.594Z,41.62
2018-10-05T14:52:08.653Z,41.52
2018-10-05T14:54:36.724Z,41.72
2018-10-05T14:57:04.869Z,41.80
2018-10-05T14:59:32.918Z,41.70
2018-10-05T15:02:01.000Z,41.70
2018-10-05T15:04:29.066Z,41.54
2018-10-05T15:06:57.182Z,41.64
2018-10-05T15:09:25.213Z,41.79
2018-10-05T15:11:53.504Z,41.43
2018-10-05T15:14:21.575Z,41.55
2018-10-05T15:16:49.649Z,41.68
2018-10-05T15:19:17.732Z,42.20
2018-10-05T15:21:45.800Z,42.30
2018-10-05T15:24:14.356Z,42.12
2018-10-05T15:26:42.445Z,42.57
2018-10-05T15:29:10.501Z,43.49
2018-10-05T15:31:38.615Z,43.99
2018-10-05T15:34:06.807Z,44.22
2018-10-05T15:36:34.886Z,44.69
2018-10-05T15:39:02.966Z,44.99
2018-10-05T15:41:31.029Z,45.38
2018-10-05T15:43:59.106Z,45.46
2018-10-05T15:46:59.282Z,45.65
2018-10-05T15:49:27.865Z,45.82
2018-10-05T15:51:55.947Z,45.65
2018-10-05T15:54:24.011Z,45.59
2018-10-05T15:56:52.334Z,45.56
2018-10-05T15:59:20.521Z,45.39
2018-10-05T16:01:48.582Z,45.54
2018-10-05T16:04:16.973Z,46.08
2018-10-05T16:06:45.239Z,46.51
2018-10-05T16:09:13.336Z,46.96
2018-10-05T16:11:41.398Z,47.37
2018-10-05T16:14:09.479Z,47.67
2018-10-05T16:16:37.573Z,47.78
2018-10-05T16:19:06.437Z,47.94
2018-10-05T16:21:35.418Z,48.21
2018-10-05T16:24:05.855Z,48.32
2018-10-05T16:26:33.926Z,48.72
2018-10-05T16:29:02.035Z,49.37
2018-10-05T16:31:30.138Z,50.11
2018-10-05T16:33:58.213Z,50.52
2018-10-05T16:36:26.354Z,50.77
2018-10-05T16:38:54.434Z,51.26
2018-10-05T16:41:22.767Z,51.33
2018-10-05T16:43:50.922Z,51.76
2018-10-05T16:46:18.919Z,52.11
2018-10-05T16:48:46.994Z,52.32
2018-10-05T16:51:15.090Z,52.48
2018-10-05T16:53:43.162Z,52.61
2018-10-05T16:56:11.237Z,52.83
2018-10-05T16:58:39.315Z,53.24
2018-10-05T17:01:07.412Z,53.56
2018-10-05T17:03:35.478Z,53.91
2018-10-05T17:06:03.553Z,54.07
2018-10-05T17:08:33.713Z,54.30
2018-10-05T17:11:01.968Z,54.63
2018-10-05T17:13:29.863Z,55.15
2018-10-05T17:15:57.927Z,55.46
2018-10-05T17:18:25.997Z,55.78
2018-10-05T17:20:54.066Z,56.19
2018-10-05T17:23:22.153Z,56.44
2018-10-05T17:25:50.217Z,56.75
2018-10-05T17:28:18.296Z,56.89
2018-10-05T17:30:46.372Z,57.09
2018-10-05T17:33:14.436Z,57.09
2018-10-05T17:35:42.652Z,57.20
2018-10-05T17:38:10.582Z,57.45
2018-10-05T17:40:38.664Z,57.53
2018-10-05T17:43:06.742Z,57.69
2018-10-05T17:45:34.823Z,57.81
2018-10-05T17:48:02.892Z,57.91
2018-10-05T17:50:30.970Z,58.17
2018-10-05T17:52:59.038Z,58.58
2018-10-05T17:55:27.211Z,58.67
2018-10-05T17:57:55.239Z,58.80
2018-10-05T18:00:23.327Z,58.90
2018-10-05T18:02:51.403Z,58.88
2018-10-05T18:05:19.502Z,58.97
2018-10-05T18:07:47.573Z,58.92
2018-10-05T18:10:15.661Z,58.92
2018-10-05T18:12:43.742Z,58.82
2018-10-05T18:15:11.830Z,58.74
2018-10-05T18:17:40.736Z,58.87
2018-10-05T18:20:08.959Z,59.18
2018-10-05T18:22:36.995Z,59.56
2018-10-05T18:25:05.235Z,59.79
2018-10-05T18:27:33.343Z,59.84
2018-10-05T18:30:01.434Z,59.80
2018-10-05T18:32:29.559Z,59.86
2018-10-05T18:34:57.654Z,60.16
2018-10-05T18:37:25.762Z,60.27
2018-10-05T18:39:53.862Z,60.46
2018-10-05T18:42:21.949Z,60.43
2018-10-05T18:44:50.055Z,60.59
2018-10-05T18:47:18.143Z,60.73
2018-10-05T18:49:46.222Z,60.66
2018-10-05T18:52:14.296Z,60.95
2018-10-05T18:54:42.389Z,61.08
2018-10-05T18:57:13.707Z,61.07
2018-10-05T18:59:42.103Z,61.24
2018-10-05T19:02:10.196Z,61.27
2018-10-05T19:04:38.279Z,61.17
2018-10-05T19:07:06.515Z,61.12
2018-10-05T19:09:34.513Z,61.12
2018-10-05T19:12:02.632Z,61.11
2018-10-05T19:14:30.705Z,61.25
2018-10-05T19:16:58.798Z,61.45
2018-10-05T19:19:26.875Z,61.65
2018-10-05T19:21:54.961Z,61.92
2018-10-05T19:24:23.048Z,62.23
2018-10-05T19:26:51.263Z,62.43
2018-10-05T19:29:19.322Z,62.36
2018-10-05T19:31:47.519Z,62.30
2018-10-05T19:34:15.636Z,62.19
2018-10-05T19:36:43.750Z,62.11
2018-10-05T19:39:12.368Z,62.02
2018-10-05T19:41:41.070Z,62.05
2018-10-05T19:44:09.649Z,62.18
2018-10-05T19:46:38.031Z,62.14
2018-10-05T19:49:06.119Z,62.06
2018-10-05T19:51:34.206Z,61.97
2018-10-05T19:54:02.286Z,62.06
2018-10-05T19:56:30.377Z,62.26
2018-10-05T19:58:58.481Z,62.40
2018-10-05T20:01:26.539Z,62.50
2018-10-05T20:03:54.614Z,62.54
2018-10-05T20:06:23.087Z,62.64
2018-10-05T20:08:51.152Z,62.66
2018-10-05T20:11:19.227Z,62.64
2018-10-05T20:13:47.296Z,62.75
2018-10-05T20:16:15.536Z,62.87
2018-10-05T20:18:43.565Z,62.97
2018-10-05T20:21:11.688Z,63.31
2018-10-05T20:23:40.025Z,63.38
2018-10-05T20:26:08.154Z,63.48
2018-10-05T20:28:36.231Z,63.38
2018-10-05T20:31:04.559Z,63.28
2018-10-05T20:33:32.658Z,62.94
2018-10-05T20:36:00.810Z,62.76
2018-10-05T20:38:28.842Z,62.68
2018-10-05T20:40:56.939Z,62.61
2018-10-05T20:43:25.012Z,62.51
2018-10-05T20:45:53.084Z,62.56
2018-10-05T20:48:21.156Z,62.57
2018-10-05T20:50:49.218Z,62.80
2018-10-05T20:53:17.298Z,62.94
2018-10-05T20:55:45.382Z,63.14
2018-10-05T20:58:13.483Z,63.15
2018-10-05T21:00:41.551Z,63.15
2018-10-05T21:03:09.634Z,63.17
2018-10-05T21:05:37.713Z,63.20
2018-10-05T21:08:06.105Z,63.28
2018-10-05T21:10:34.165Z,63.35
2018-10-05T21:13:02.760Z,63.28
2018-10-05T21:15:30.849Z,63.29
2018-10-05T21:17:58.978Z,63.35
2018-10-05T21:20:26.998Z,63.42
2018-10-05T21:22:55.070Z,63.48
2018-10-05T21:25:23.137Z,63.50
2018-10-05T21:27:51.220Z,63.54
2018-10-05T21:30:19.281Z,63.49
2018-10-05T21:32:47.432Z,63.46
2018-10-05T21:35:15.415Z,63.45
2018-10-05T21:37:43.500Z,63.40
2018-10-05T21:40:11.566Z,63.34
2018-10-05T21:42:39.648Z,63.43
2018-10-05T21:45:07.829Z,63.39
2018-10-05T21:47:35.815Z,63.45
2018-10-05T21:50:03.917Z,63.53
2018-10-05T21:52:32.048Z,63.57
2018-10-05T21:55:00.291Z,63.52
2018-10-05T21:57:28.352Z,63.50
2018-10-05T21:59:56.428Z,63.52
2018-10-05T22:02:28.045Z,63.55
2018-10-05T22:04:56.128Z,63.53
2018-10-05T22:07:24.205Z,63.59
2018-10-05T22:09:52.283Z,63.68
2018-10-05T22:12:20.352Z,63.69
2018-10-05T22:14:48.435Z,63.78
2018-10-05T22:17:16.511Z,63.81
2018-10-05T22:19:44.619Z,63.83
2018-10-05T22:22:12.671Z,63.82
2018-10-05T22:24:40.773Z,63.86
2018-10-05T22:27:09.444Z,63.93
2018-10-05T22:29:37.789Z,63.97
2018-10-05T22:32:06.146Z,64.03
2018-10-05T22:34:34.229Z,64.15
2018-10-05T22:37:02.390Z,64.15
2018-10-05T22:39:30.477Z,64.20
2018-10-05T22:41:59.053Z,64.33
2018-10-05T22:44:27.131Z,64.44
2018-10-05T22:46:55.400Z,64.57
2018-10-05T22:49:23.484Z,64.59
2018-10-05T22:51:51.557Z,64.77
2018-10-05T22:54:19.635Z,64.86
2018-10-05T22:56:47.709Z,64.97
2018-10-05T22:59:15.815Z,64.86
2018-10-05T23:01:43.891Z,64.61
2018-10-05T23:04:12.056Z,64.42
2018-10-05T23:06:40.143Z,64.39
2018-10-05T23:09:08.677Z,64.29
2018-10-05T23:11:37.156Z,64.18
2018-10-05T23:14:05.337Z,64.18
2018-10-05T23:16:33.516Z,64.18
2018-10-05T23:19:01.654Z,64.23
2018-10-05T23:21:29.735Z,64.23
2018-10-05T23:23:57.801Z,64.22
2018-10-05T23:26:25.872Z,64.01
2018-10-05T23:28:53.947Z,64.00
2018-10-05T23:31:22.120Z,63.91
2018-10-05T23:33:50.182Z,64.15
2018-10-05T23:36:18.258Z,64.44
2018-10-05T23:38:46.327Z,64.74
2018-10-05T23:41:14.420Z,65.19
2018-10-05T23:43:42.492Z,65.34
2018-10-05T23:46:10.569Z,65.52
2018-10-05T23:48:38.639Z,65.64
2018-10-05T23:51:06.727Z,65.79
2018-10-05T23:53:34.959Z,65.96
2018-10-05T23:56:03.037Z,65.96
2018-10-05T23:58:31.112Z,65.94
